createdAt,value
2023-04-20T00:00:05.111Z,1306.00
2023-04-20T00:01:05.133Z,1309.00
2023-04-20T00:02:05.193Z,1309.00
2023-04-20T00:03:05.254Z,1308.00
2023-04-20T00:04:05.168Z,1303.00
2023-04-20T00:05:05.193Z,1305.00
2023-04-20T00:06:05.184Z,1303.00
2023-04-20T00:07:05.202Z,1300.00
2023-04-20T00:08:05.178Z,1298.00
2023-04-20T00:09:05.197Z,1300.00
2023-04-20T00:10:05.198Z,1300.00
2023-04-20T00:11:05.221Z,1293.00
2023-04-20T00:12:05.238Z,1292.00
2023-04-20T00:13:05.251Z,1288.00
2023-04-20T00:14:05.254Z,1294.00
2023-04-20T00:15:05.280Z,1292.00
2023-04-20T00:16:05.264Z,1279.00
2023-04-20T00:17:05.315Z,1287.00
2023-04-20T00:18:05.322Z,1287.00
2023-04-20T00:19:05.276Z,1278.00
2023-04-20T00:20:05.283Z,1281.00
2023-04-20T00:21:05.303Z,1288.00
2023-04-20T00:22:05.320Z,1282.00
2023-04-20T00:23:05.337Z,1277.00
2023-04-20T00:24:05.391Z,1279.00
2023-04-20T00:25:05.341Z,1276.00
2023-04-20T00:26:05.358Z,1273.00
2023-04-20T00:27:05.414Z,1271.00
2023-04-20T00:28:05.406Z,1274.00
2023-04-20T00:29:05.400Z,1270.00
2023-04-20T00:30:05.432Z,1271.00
2023-04-20T00:31:05.444Z,1273.00
2023-04-20T00:32:05.467Z,1269.00
2023-04-20T00:33:05.510Z,1265.00
2023-04-20T00:34:05.480Z,1267.00
2023-04-20T00:35:05.490Z,1265.00
2023-04-20T00:36:05.492Z,1257.00
2023-04-20T00:37:05.518Z,1263.00
2023-04-20T00:38:05.508Z,1254.00
2023-04-20T00:39:05.523Z,1258.00
2023-04-20T00:40:05.536Z,1265.00
2023-04-20T00:41:05.545Z,1258.00
2023-04-20T00:42:05.582Z,1253.00
2023-04-20T00:43:05.568Z,1253.00
2023-04-20T00:44:05.573Z,1254.00
2023-04-20T00:45:05.577Z,1254.00
2023-04-20T00:46:05.593Z,1249.00
2023-04-20T00:47:05.592Z,1246.00
2023-04-20T00:48:05.629Z,1244.00
2023-04-20T00:49:05.607Z,1247.00
2023-04-20T00:50:05.603Z,1245.00
2023-04-20T00:51:05.604Z,1242.00
2023-04-20T00:52:05.621Z,1241.00
2023-04-20T00:53:05.619Z,1242.00
2023-04-20T00:54:05.640Z,1243.00
2023-04-20T00:55:05.646Z,1246.00
2023-04-20T00:56:05.641Z,1240.00
2023-04-20T00:57:05.642Z,1231.00
2023-04-20T00:58:05.666Z,1234.00
2023-04-20T00:59:05.667Z,1234.00
2023-04-20T01:00:05.680Z,1235.00
2023-04-20T01:01:05.682Z,1234.00
2023-04-20T01:02:05.760Z,1227.00
2023-04-20T01:03:05.872Z,1228.00
2023-04-20T01:04:05.856Z,1229.00
2023-04-20T01:05:05.695Z,1229.00
2023-04-20T01:06:05.696Z,1229.00
2023-04-20T01:07:05.708Z,1230.00
2023-04-20T01:08:05.703Z,1224.00
2023-04-20T01:09:05.712Z,1224.00
2023-04-20T01:10:05.708Z,1223.00
2023-04-20T01:11:05.708Z,1224.00
2023-04-20T01:12:05.719Z,1224.00
2023-04-20T01:13:05.731Z,1213.00
2023-04-20T01:14:05.733Z,1214.00
2023-04-20T01:15:05.736Z,1219.00
2023-04-20T01:16:05.883Z,1216.00
2023-04-20T01:17:05.723Z,1210.00
2023-04-20T01:18:05.891Z,1213.00
2023-04-20T01:19:05.745Z,1210.00
2023-04-20T01:20:05.752Z,1206.00
2023-04-20T01:21:05.737Z,1212.00
2023-04-20T01:22:05.738Z,1211.00
2023-04-20T01:23:05.742Z,1198.00
2023-04-20T01:24:05.746Z,1201.00
2023-04-20T01:25:05.766Z,1201.00
2023-04-20T01:26:05.750Z,1199.00
2023-04-20T01:27:05.750Z,1198.00
2023-04-20T01:28:05.763Z,1195.00
2023-04-20T01:29:05.755Z,1194.00
2023-04-20T01:30:05.767Z,1200.00
2023-04-20T01:31:05.801Z,1191.00
2023-04-20T01:32:05.777Z,1190.00
2023-04-20T01:33:05.786Z,1194.00
2023-04-20T01:34:05.793Z,1189.00
2023-04-20T01:35:05.836Z,1188.00
2023-04-20T01:36:05.848Z,1190.00
2023-04-20T01:37:05.874Z,1186.00
2023-04-20T01:38:05.906Z,1183.00
2023-04-20T01:39:05.929Z,1186.00
2023-04-20T01:40:05.922Z,1185.00
2023-04-20T01:41:05.930Z,1182.00
2023-04-20T01:42:05.950Z,1185.00
2023-04-20T01:43:05.945Z,1183.00
2023-04-20T01:44:05.951Z,1179.00
2023-04-20T01:45:05.955Z,1180.00
2023-04-20T01:46:05.986Z,1174.00
2023-04-20T01:47:06.063Z,1175.00
2023-04-20T01:48:06.072Z,1170.00
2023-04-20T01:49:06.004Z,1176.00
2023-04-20T01:50:06.042Z,1170.00
2023-04-20T01:51:06.069Z,1168.00
2023-04-20T01:52:06.101Z,1161.00
2023-04-20T01:53:06.143Z,1163.00
2023-04-20T01:54:06.154Z,1161.00
2023-04-20T01:55:06.182Z,1163.00
2023-04-20T01:56:06.208Z,1157.00
2023-04-20T01:57:06.224Z,1155.00
2023-04-20T01:58:06.246Z,1161.00
2023-04-20T01:59:06.273Z,1161.00
2023-04-20T02:00:06.282Z,1157.00
2023-04-20T02:01:06.321Z,1159.00
2023-04-20T02:02:06.347Z,1153.00
2023-04-20T02:03:06.390Z,1154.00
2023-04-20T02:04:06.365Z,1153.00
2023-04-20T02:05:06.344Z,1149.00
2023-04-20T02:06:06.351Z,1144.00
2023-04-20T02:07:06.359Z,1139.00
2023-04-20T02:08:06.403Z,1141.00
2023-04-20T02:09:06.393Z,1146.00
2023-04-20T02:10:06.399Z,1140.00
2023-04-20T02:11:06.405Z,1134.00
2023-04-20T02:12:06.412Z,1133.00
2023-04-20T02:13:06.415Z,1135.00
2023-04-20T02:14:06.444Z,1136.00
2023-04-20T02:15:06.431Z,1137.00
2023-04-20T02:16:06.433Z,1137.00
2023-04-20T02:17:06.475Z,1140.00
2023-04-20T02:18:06.459Z,1137.00
2023-04-20T02:20:41.216Z,500.00
2023-04-20T02:21:44.663Z,500.00
2023-04-20T02:22:44.657Z,500.00
2023-04-20T02:23:44.684Z,500.00
2023-04-20T02:24:44.683Z,500.00
2023-04-20T02:25:44.720Z,500.00
2023-04-20T02:26:44.707Z,501.00
2023-04-20T02:27:44.713Z,502.00
2023-04-20T02:28:44.728Z,500.00
2023-04-20T02:29:44.740Z,493.00
2023-04-20T02:30:44.760Z,491.00
2023-04-20T02:31:44.850Z,487.00
2023-04-20T02:32:44.846Z,501.00
2023-04-20T02:33:44.789Z,501.00
2023-04-20T02:34:44.795Z,500.00
2023-04-20T02:35:44.815Z,501.00
2023-04-20T02:36:44.819Z,501.00
2023-04-20T02:37:44.833Z,500.00
2023-04-20T02:38:44.854Z,500.00
2023-04-20T02:39:44.908Z,500.00
2023-04-20T02:40:44.945Z,500.00
2023-04-20T02:41:44.991Z,503.00
2023-04-20T02:42:45.029Z,502.00
2023-04-20T02:43:45.092Z,502.00
2023-04-20T02:44:45.131Z,500.00
2023-04-20T02:45:45.202Z,501.00
2023-04-20T02:46:45.280Z,503.00
2023-04-20T02:47:45.384Z,502.00
2023-04-20T02:48:45.331Z,501.00
2023-04-20T02:49:45.376Z,500.00
2023-04-20T02:50:45.427Z,500.00
2023-04-20T02:51:45.479Z,502.00
2023-04-20T02:52:45.533Z,502.00
2023-04-20T02:53:45.596Z,500.00
2023-04-20T02:54:45.643Z,503.00
2023-04-20T02:55:45.703Z,501.00
2023-04-20T02:56:45.771Z,500.00
2023-04-20T02:57:45.905Z,497.00
2023-04-20T02:58:45.922Z,440.00
2023-04-20T02:59:46.002Z,427.00
2023-04-20T03:00:46.091Z,445.00
2023-04-20T03:01:46.190Z,458.00
2023-04-20T03:02:46.401Z,460.00
2023-04-20T03:03:46.558Z,465.00
2023-04-20T03:04:46.449Z,469.00
2023-04-20T03:05:46.370Z,430.00
2023-04-20T03:06:46.401Z,400.00
2023-04-20T03:07:46.496Z,400.00
2023-04-20T03:08:46.448Z,400.00
2023-04-20T03:09:46.471Z,400.00
2023-04-20T03:10:46.491Z,400.00
2023-04-20T03:11:46.526Z,400.00
2023-04-20T03:12:46.552Z,400.00
2023-04-20T03:13:46.592Z,400.00
2023-04-20T03:14:46.616Z,400.00
2023-04-20T03:15:46.641Z,400.00
2023-04-20T03:16:46.738Z,400.00
2023-04-20T03:17:46.758Z,400.00
2023-04-20T03:18:46.809Z,400.00
2023-04-20T03:19:46.797Z,400.00
2023-04-20T03:20:46.858Z,400.00
2023-04-20T03:21:46.826Z,400.00
2023-04-20T03:22:46.872Z,400.00
2023-04-20T03:23:46.898Z,400.00
2023-04-20T03:24:46.928Z,400.00
2023-04-20T03:25:46.965Z,400.00
2023-04-20T03:26:46.995Z,400.00
2023-04-20T03:27:47.038Z,400.00
2023-04-20T03:28:47.064Z,400.00
2023-04-20T03:29:47.100Z,400.00
2023-04-20T03:30:47.128Z,400.00
2023-04-20T03:31:47.210Z,400.00
2023-04-20T03:32:47.258Z,422.00
2023-04-20T03:33:47.235Z,466.00
2023-04-20T03:34:47.264Z,501.00
2023-04-20T03:35:47.303Z,502.00
2023-04-20T03:36:47.332Z,501.00
2023-04-20T03:37:47.374Z,505.00
2023-04-20T03:38:47.458Z,503.00
2023-04-20T03:39:47.529Z,504.00
2023-04-20T03:40:47.608Z,501.00
2023-04-20T03:41:47.683Z,503.00
2023-04-20T03:42:47.759Z,502.00
2023-04-20T03:43:47.838Z,505.00
2023-04-20T03:44:47.918Z,508.00
2023-04-20T03:45:48.020Z,506.00
2023-04-20T03:46:48.072Z,513.00
2023-04-20T03:47:48.237Z,512.00
2023-04-20T03:48:48.241Z,517.00
2023-04-20T03:49:48.335Z,517.00
2023-04-20T03:50:48.421Z,515.00
2023-04-20T03:51:48.504Z,509.00
2023-04-20T03:52:48.599Z,510.00
2023-04-20T03:53:48.691Z,511.00
2023-04-20T03:54:48.762Z,510.00
2023-04-20T03:55:48.859Z,509.00
2023-04-20T03:56:48.951Z,504.00
2023-04-20T03:57:49.030Z,508.00
2023-04-20T03:58:49.149Z,520.00
2023-04-20T03:59:49.221Z,534.00
2023-04-20T04:00:49.315Z,536.00
2023-04-20T04:01:49.406Z,539.00
2023-04-20T04:02:49.593Z,553.00
2023-04-20T04:03:49.836Z,555.00
2023-04-20T04:04:49.760Z,555.00
2023-04-20T04:05:49.790Z,551.00
2023-04-20T04:06:49.874Z,571.00
2023-04-20T04:07:49.975Z,558.00
2023-04-20T04:08:50.069Z,550.00
2023-04-20T04:09:50.159Z,554.00
2023-04-20T04:10:50.259Z,541.00
2023-04-20T04:11:50.365Z,542.00
2023-04-20T04:12:50.463Z,551.00
2023-04-20T04:13:50.574Z,546.00
2023-04-20T04:14:50.649Z,544.00
2023-04-20T04:15:50.757Z,544.00
2023-04-20T04:16:50.866Z,537.00
2023-04-20T04:17:51.008Z,531.00
2023-04-20T04:18:51.063Z,541.00
2023-04-20T04:19:51.146Z,540.00
2023-04-20T04:20:51.247Z,536.00
2023-04-20T04:21:51.335Z,528.00
2023-04-20T04:22:51.444Z,540.00
2023-04-20T04:23:51.540Z,533.00
2023-04-20T04:24:51.639Z,528.00
2023-04-20T04:25:51.732Z,531.00
2023-04-20T04:26:51.831Z,535.00
2023-04-20T04:27:51.932Z,550.00
2023-04-20T04:28:52.043Z,535.00
2023-04-20T04:29:52.148Z,525.00
2023-04-20T04:30:52.258Z,529.00
2023-04-20T04:31:52.407Z,524.00
2023-04-20T04:32:52.491Z,514.00
2023-04-20T04:33:52.587Z,516.00
2023-04-20T04:34:52.667Z,518.00
2023-04-20T04:35:52.821Z,523.00
2023-04-20T04:36:52.899Z,517.00
2023-04-20T04:37:53.001Z,514.00
2023-04-20T04:38:53.120Z,529.00
2023-04-20T04:39:53.230Z,536.00
2023-04-20T04:40:53.330Z,533.00
2023-04-20T04:41:53.436Z,542.00
2023-04-20T04:42:53.561Z,542.00
2023-04-20T04:43:53.652Z,547.00
2023-04-20T04:44:53.803Z,556.00
2023-04-20T04:45:53.880Z,572.00
2023-04-20T04:46:53.916Z,562.00
2023-04-20T04:47:54.108Z,574.00
2023-04-20T04:48:54.143Z,581.00
2023-04-20T04:49:54.249Z,587.00
2023-04-20T04:50:54.364Z,599.00
2023-04-20T04:51:54.470Z,598.00
2023-04-20T04:52:54.592Z,596.00
2023-04-20T04:53:54.701Z,619.00
2023-04-20T04:54:54.803Z,671.00
2023-04-20T04:55:54.907Z,851.00
2023-04-20T04:56:55.011Z,1089.00
2023-04-20T04:57:55.106Z,1225.00
2023-04-20T04:58:55.200Z,1390.00
2023-04-20T04:59:55.287Z,1504.00
2023-04-20T05:00:55.368Z,1543.00
2023-04-20T05:01:55.451Z,1587.00
2023-04-20T05:02:55.660Z,1615.00
2023-04-20T05:03:55.721Z,1690.00
2023-04-20T05:04:55.693Z,1726.00
2023-04-20T05:05:55.746Z,1738.00
2023-04-20T05:06:55.828Z,1744.00
2023-04-20T05:07:55.857Z,1746.00
2023-04-20T05:08:55.911Z,1758.00
2023-04-20T05:09:55.924Z,1806.00
2023-04-20T05:10:55.962Z,1883.00
2023-04-20T05:11:56.019Z,2030.00
2023-04-20T05:12:56.032Z,2085.00
2023-04-20T05:13:56.068Z,2103.00
2023-04-20T05:14:56.105Z,2123.00
2023-04-20T05:15:56.181Z,2140.00
2023-04-20T05:16:56.164Z,2176.00
2023-04-20T05:17:56.213Z,2188.00
2023-04-20T05:18:56.238Z,2207.00
2023-04-20T05:19:56.265Z,2252.00
2023-04-20T05:20:56.289Z,2262.00
2023-04-20T05:21:56.324Z,2274.00
2023-04-20T05:22:56.358Z,2260.00
2023-04-20T05:23:56.402Z,2239.00
2023-04-20T05:24:56.421Z,2235.00
2023-04-20T05:25:56.482Z,2223.00
2023-04-20T05:26:56.540Z,2240.00
2023-04-20T05:27:56.612Z,1936.00
2023-04-20T05:28:56.684Z,1764.00
2023-04-20T05:30:01.730Z,1644.00
2023-04-20T05:30:57.840Z,1590.00
2023-04-20T05:31:56.860Z,1534.00
2023-04-20T05:32:56.901Z,1448.00
2023-04-20T05:33:56.888Z,1374.00
2023-04-20T05:34:56.919Z,1290.00
2023-04-20T05:35:56.955Z,1250.00
2023-04-20T05:36:57.017Z,1221.00
2023-04-20T05:37:57.035Z,1183.00
2023-04-20T05:38:57.073Z,1098.00
2023-04-20T05:39:57.112Z,1041.00
2023-04-20T05:40:57.158Z,993.00
2023-04-20T05:41:57.243Z,944.00
2023-04-20T05:42:57.360Z,878.00
2023-04-20T05:43:57.439Z,846.00
2023-04-20T05:44:57.545Z,813.00
2023-04-20T05:45:57.704Z,786.00
2023-04-20T05:46:57.758Z,735.00
2023-04-20T05:47:57.905Z,712.00
2023-04-20T05:48:57.975Z,738.00
2023-04-20T05:49:58.073Z,693.00
2023-04-20T05:50:58.217Z,661.00
2023-04-20T05:51:58.320Z,674.00
2023-04-20T05:52:58.428Z,672.00
2023-04-20T05:53:58.548Z,664.00
2023-04-20T05:54:58.565Z,656.00
2023-04-20T05:55:58.648Z,655.00
2023-04-20T05:56:58.661Z,666.00
2023-04-20T05:57:58.701Z,664.00
2023-04-20T05:58:58.731Z,645.00
2023-04-20T05:59:58.770Z,648.00
2023-04-20T06:00:58.818Z,650.00
2023-04-20T06:01:58.931Z,636.00
2023-04-20T06:02:59.046Z,623.00
2023-04-20T06:03:59.337Z,621.00
2023-04-20T06:04:59.187Z,607.00
2023-04-20T06:05:59.094Z,588.00
2023-04-20T06:06:59.227Z,583.00
2023-04-20T06:07:59.262Z,583.00
2023-04-20T06:08:59.317Z,562.00
2023-04-20T06:09:59.368Z,555.00
2023-04-20T06:10:59.405Z,560.00
2023-04-20T06:11:59.471Z,571.00
2023-04-20T06:12:59.515Z,563.00
2023-04-20T06:13:59.559Z,562.00
2023-04-20T06:14:59.645Z,580.00
2023-04-20T06:15:59.735Z,587.00
2023-04-20T06:16:59.827Z,585.00
2023-04-20T06:17:59.930Z,594.00
2023-04-20T06:19:00.130Z,611.00
2023-04-20T06:20:00.201Z,616.00
2023-04-20T06:21:00.283Z,630.00
2023-04-20T06:22:01.220Z,634.00
2023-04-20T06:23:00.518Z,638.00
2023-04-20T06:24:00.636Z,643.00
2023-04-20T06:25:00.741Z,649.00
2023-04-20T06:26:00.863Z,653.00
2023-04-20T06:27:01.002Z,658.00
2023-04-20T06:28:01.123Z,693.00
2023-04-20T06:29:01.242Z,720.00
2023-04-20T06:30:01.342Z,739.00
2023-04-20T06:31:01.505Z,790.00
2023-04-20T06:32:01.608Z,824.00
2023-04-20T06:33:01.772Z,872.00
2023-04-20T06:34:01.840Z,880.00
2023-04-20T06:35:01.962Z,888.00
2023-04-20T06:36:02.051Z,939.00
2023-04-20T06:37:02.174Z,973.00
2023-04-20T06:38:02.272Z,980.00
2023-04-20T06:39:02.394Z,1008.00
2023-04-20T06:40:02.481Z,1020.00
2023-04-20T06:41:02.599Z,1033.00
2023-04-20T06:42:02.752Z,1001.00
2023-04-20T06:43:02.844Z,1036.00
2023-04-20T06:44:02.961Z,1073.00
2023-04-20T06:45:03.102Z,1069.00
2023-04-20T06:46:03.180Z,1034.00
2023-04-20T06:47:03.432Z,1039.00
2023-04-20T06:48:03.481Z,1029.00
2023-04-20T06:49:03.556Z,1003.00
2023-04-20T06:50:03.698Z,957.00
2023-04-20T06:51:03.766Z,963.00
2023-04-20T06:52:03.861Z,937.00
2023-04-20T06:53:03.980Z,916.00
2023-04-20T06:54:04.093Z,922.00
2023-04-20T06:55:04.151Z,923.00
2023-04-20T06:56:04.198Z,924.00
2023-04-20T06:57:04.260Z,931.00
2023-04-20T06:58:04.288Z,947.00
2023-04-20T06:59:04.355Z,957.00
2023-04-20T07:00:04.387Z,976.00
2023-04-20T07:01:04.471Z,973.00
2023-04-20T07:02:04.529Z,975.00
2023-04-20T07:03:04.621Z,989.00
2023-04-20T07:04:04.765Z,1000.00
2023-04-20T07:05:04.615Z,991.00
2023-04-20T07:06:04.815Z,992.00
2023-04-20T07:07:04.687Z,994.00
2023-04-20T07:08:04.722Z,1002.00
2023-04-20T07:09:04.799Z,1030.00
2023-04-20T07:10:04.816Z,1063.00
2023-04-20T07:11:04.860Z,1047.00
2023-04-20T07:12:04.904Z,1066.00
2023-04-20T07:13:04.949Z,1093.00
2023-04-20T07:14:04.994Z,1078.00
2023-04-20T07:15:05.072Z,1089.00
2023-04-20T07:16:05.130Z,1101.00
2023-04-20T07:17:05.115Z,1107.00
2023-04-20T07:18:05.194Z,1098.00
2023-04-20T07:19:05.215Z,1067.00
2023-04-20T07:20:05.254Z,1044.00
2023-04-20T07:21:05.358Z,1021.00
2023-04-20T07:22:05.558Z,1033.00
2023-04-20T07:23:05.545Z,1105.00
2023-04-20T07:24:05.637Z,1090.00
2023-04-20T07:25:05.720Z,1113.00
2023-04-20T07:26:05.805Z,1080.00
2023-04-20T07:27:05.920Z,1062.00
2023-04-20T07:28:06.040Z,1040.00
2023-04-20T07:29:06.121Z,1027.00
2023-04-20T07:30:06.224Z,1061.00
2023-04-20T07:31:06.325Z,1021.00
2023-04-20T07:32:06.413Z,996.00
2023-04-20T07:33:06.526Z,968.00
2023-04-20T07:34:06.568Z,956.00
2023-04-20T07:35:06.649Z,955.00
2023-04-20T07:36:06.718Z,969.00
2023-04-20T07:37:06.788Z,992.00
2023-04-20T07:38:06.819Z,993.00
2023-04-20T07:39:07.072Z,994.00
2023-04-20T07:40:07.133Z,1011.00
2023-04-20T07:41:06.949Z,1041.00
2023-04-20T07:42:07.007Z,1085.00
2023-04-20T07:43:07.044Z,1077.00
2023-04-20T07:44:07.091Z,1055.00
2023-04-20T07:45:07.151Z,1074.00
2023-04-20T07:46:07.229Z,1078.00
2023-04-20T07:47:07.225Z,1118.00
2023-04-20T07:48:07.354Z,1084.00
2023-04-20T07:49:07.327Z,1096.00
2023-04-20T07:50:07.360Z,1115.00
2023-04-20T07:51:07.435Z,1135.00
2023-04-20T07:52:16.448Z,1152.00
2023-04-20T07:53:08.608Z,1153.00
2023-04-20T07:54:07.651Z,1156.00
2023-04-20T07:55:07.708Z,1172.00
2023-04-20T07:56:07.761Z,1214.00
2023-04-20T07:57:07.798Z,1257.00
2023-04-20T07:58:07.846Z,1336.00
2023-04-20T07:59:08.119Z,1339.00
2023-04-20T08:00:07.965Z,1385.00
2023-04-20T08:01:08.012Z,1369.00
2023-04-20T08:02:08.154Z,1401.00
2023-04-20T08:03:08.476Z,1437.00
2023-04-20T08:04:08.595Z,1469.00
2023-04-20T08:05:08.734Z,1479.00
2023-04-20T08:06:08.541Z,1477.00
2023-04-20T08:07:08.661Z,1479.00
2023-04-20T08:08:08.773Z,1481.00
2023-04-20T08:09:09.046Z,1487.00
2023-04-20T08:10:09.067Z,1476.00
2023-04-20T08:11:09.119Z,1475.00
2023-04-20T08:12:09.234Z,1486.00
2023-04-20T08:13:09.325Z,1494.00
2023-04-20T08:14:09.430Z,1493.00
2023-04-20T08:15:09.513Z,1489.00
2023-04-20T08:16:09.768Z,1472.00
2023-04-20T08:17:09.703Z,1474.00
2023-04-20T08:18:09.825Z,1449.00
2023-04-20T08:19:09.942Z,1441.00
2023-04-20T08:20:10.055Z,1451.00
2023-04-20T08:21:10.152Z,1456.00
2023-04-20T08:22:10.256Z,1407.00
2023-04-20T08:23:10.375Z,1417.00
2023-04-20T08:24:10.512Z,1433.00
2023-04-20T08:25:10.601Z,1419.00
2023-04-20T08:26:10.710Z,1387.00
2023-04-20T08:27:10.823Z,1367.00
2023-04-20T08:28:19.262Z,1336.00
2023-04-20T08:29:11.994Z,1333.00
2023-04-20T08:30:11.022Z,1302.00
2023-04-20T08:31:11.078Z,1255.00
2023-04-20T08:32:11.095Z,1245.00
2023-04-20T08:33:11.176Z,1229.00
2023-04-20T08:34:11.181Z,1179.00
2023-04-20T08:35:11.224Z,1159.00
2023-04-20T08:36:11.294Z,1195.00
2023-04-20T08:37:11.361Z,1193.00
2023-04-20T08:38:15.660Z,1155.00
2023-04-20T08:39:12.514Z,1150.00
2023-04-20T08:40:11.550Z,1140.00
2023-04-20T08:41:11.597Z,1110.00
2023-04-20T08:42:11.662Z,1079.00
2023-04-20T08:43:11.704Z,1067.00
2023-04-20T08:44:11.762Z,1058.00
2023-04-20T08:45:11.831Z,1020.00
2023-04-20T08:46:11.920Z,1027.00
2023-04-20T08:47:12.005Z,987.00
2023-04-20T08:48:12.092Z,949.00
2023-04-20T08:49:12.221Z,934.00
2023-04-20T08:50:12.334Z,889.00
2023-04-20T08:51:12.456Z,850.00
2023-04-20T08:52:12.561Z,817.00
2023-04-20T08:53:12.614Z,783.00
2023-04-20T08:54:12.679Z,715.00
2023-04-20T08:55:12.718Z,714.00
2023-04-20T08:56:12.768Z,683.00
2023-04-20T08:57:12.846Z,660.00
2023-04-20T08:58:12.853Z,653.00
2023-04-20T08:59:12.943Z,647.00
2023-04-20T09:00:14.060Z,648.00
2023-04-20T09:01:17.555Z,699.00
2023-04-20T09:02:14.089Z,701.00
2023-04-20T09:03:13.208Z,712.00
2023-04-20T09:04:13.317Z,744.00
2023-04-20T09:05:13.267Z,820.00
2023-04-20T09:06:13.194Z,929.00
2023-04-20T09:07:13.231Z,1055.00
2023-04-20T09:08:13.278Z,1152.00
2023-04-20T09:09:13.314Z,1230.00
2023-04-20T09:10:13.355Z,1282.00
2023-04-20T09:11:13.383Z,1332.00
2023-04-20T09:12:13.480Z,1386.00
2023-04-20T09:13:13.593Z,1440.00
2023-04-20T09:14:13.614Z,1472.00
2023-04-20T09:15:13.702Z,1517.00
2023-04-20T09:16:13.850Z,1560.00
2023-04-20T09:17:13.859Z,1591.00
2023-04-20T09:18:13.949Z,1633.00
2023-04-20T09:19:14.100Z,1661.00
2023-04-20T09:20:14.110Z,1696.00
2023-04-20T09:21:14.168Z,1726.00
2023-04-20T09:22:14.241Z,1729.00
2023-04-20T09:23:14.314Z,1760.00
2023-04-20T09:24:14.513Z,1772.00
2023-04-20T09:25:14.475Z,1800.00
2023-04-20T09:26:14.530Z,1820.00
2023-04-20T09:27:14.575Z,1842.00
2023-04-20T09:28:14.632Z,1870.00
2023-04-20T09:29:14.693Z,1899.00
2023-04-20T09:30:14.772Z,1916.00
2023-04-20T09:31:15.134Z,1948.00
2023-04-20T09:32:14.954Z,1958.00
2023-04-20T09:33:14.957Z,1999.00
2023-04-20T09:34:15.282Z,2020.00
2023-04-20T09:35:15.054Z,2030.00
2023-04-20T09:36:15.101Z,2044.00
2023-04-20T09:37:15.155Z,2050.00
2023-04-20T09:38:15.216Z,2081.00
2023-04-20T09:39:15.262Z,2100.00
2023-04-20T09:40:15.325Z,2109.00
2023-04-20T09:41:15.391Z,2116.00
2023-04-20T09:42:15.442Z,2126.00
2023-04-20T09:43:15.600Z,2138.00
2023-04-20T09:44:15.740Z,2137.00
2023-04-20T09:45:15.553Z,2139.00
2023-04-20T09:46:15.646Z,2146.00
2023-04-20T09:47:15.619Z,2158.00
2023-04-20T09:48:15.661Z,2185.00
2023-04-20T09:49:15.691Z,2213.00
2023-04-20T09:50:26.731Z,2232.00
2023-04-20T09:51:16.750Z,2234.00
2023-04-20T09:52:15.789Z,2239.00
2023-04-20T09:53:15.828Z,2235.00
2023-04-20T09:54:16.564Z,2241.00
2023-04-20T09:55:16.037Z,2256.00
2023-04-20T09:56:15.922Z,2281.00
2023-04-20T09:57:15.940Z,2314.00
2023-04-20T09:58:15.976Z,2327.00
2023-04-20T09:59:16.009Z,2335.00
2023-04-20T10:00:16.038Z,2337.00
2023-04-20T10:01:16.332Z,2342.00
2023-04-20T10:02:16.156Z,2345.00
2023-04-20T10:03:16.287Z,2353.00
2023-04-20T10:04:16.329Z,2363.00
2023-04-20T10:05:16.177Z,2353.00
2023-04-20T10:06:16.199Z,2362.00
2023-04-20T10:07:16.223Z,2370.00
2023-04-20T10:08:16.258Z,2371.00
2023-04-20T10:09:16.268Z,2374.00
2023-04-20T10:10:16.301Z,2377.00
2023-04-20T10:11:16.338Z,2387.00
2023-04-20T10:12:16.368Z,2403.00
2023-04-20T10:13:16.385Z,2408.00
2023-04-20T10:14:16.601Z,2409.00
2023-04-20T10:15:16.440Z,2413.00
2023-04-20T10:16:16.515Z,2414.00
2023-04-20T10:17:16.668Z,2416.00
2023-04-20T10:18:16.609Z,2419.00
2023-04-20T10:19:16.550Z,2422.00
2023-04-20T10:20:16.613Z,2428.00
2023-04-20T10:21:16.587Z,2415.00
2023-04-20T10:22:16.632Z,2417.00
2023-04-20T10:23:16.702Z,2421.00
2023-04-20T10:24:19.545Z,2432.00
2023-04-20T10:25:16.672Z,2464.00
2023-04-20T10:26:16.713Z,2459.00
2023-04-20T10:27:16.724Z,2451.00
2023-04-20T10:28:16.743Z,2443.00
2023-04-20T10:29:16.779Z,2449.00
2023-04-20T10:30:16.805Z,2443.00
2023-04-20T10:31:16.981Z,2446.00
2023-04-20T10:32:16.827Z,2441.00
2023-04-20T10:33:16.985Z,2444.00
2023-04-20T10:34:17.028Z,2452.00
2023-04-20T10:35:16.893Z,2446.00
2023-04-20T10:36:16.923Z,2455.00
2023-04-20T10:37:16.966Z,2450.00
2023-04-20T10:38:16.966Z,2447.00
2023-04-20T10:39:19.304Z,2451.00
2023-04-20T10:40:17.035Z,2453.00
2023-04-20T10:41:17.032Z,2456.00
2023-04-20T10:42:18.227Z,2460.00
2023-04-20T10:43:17.066Z,2464.00
2023-04-20T10:44:17.323Z,2479.00
2023-04-20T10:45:17.129Z,2479.00
2023-04-20T10:46:17.187Z,2482.00
2023-04-20T10:47:17.147Z,2483.00
2023-04-20T10:48:18.268Z,2487.00
2023-04-20T10:49:17.388Z,2496.00
2023-04-20T10:50:17.292Z,2495.00
2023-04-20T10:51:17.365Z,2501.00
2023-04-20T10:52:17.465Z,2499.00
2023-04-20T10:53:17.561Z,2495.00
2023-04-20T10:54:18.288Z,2497.00
2023-04-20T10:55:17.747Z,2496.00
2023-04-20T10:56:17.854Z,2499.00
2023-04-20T10:57:17.945Z,2492.00
2023-04-20T10:58:18.033Z,2497.00
2023-04-20T10:59:18.381Z,2502.00
2023-04-20T11:00:18.307Z,2497.00
2023-04-20T11:01:18.344Z,2495.00
2023-04-20T11:02:18.523Z,2506.00
2023-04-20T11:03:18.543Z,2500.00
2023-04-20T11:04:19.098Z,2498.00
2023-04-20T11:05:18.737Z,2493.00
2023-04-20T11:06:18.719Z,2494.00
2023-04-20T11:07:18.828Z,2487.00
2023-04-20T11:08:18.906Z,2497.00
2023-04-20T11:09:19.253Z,2496.00
2023-04-20T11:10:19.059Z,2490.00
2023-04-20T11:11:19.168Z,2488.00
2023-04-20T11:12:19.234Z,2479.00
2023-04-20T11:13:19.324Z,2497.00
2023-04-20T11:14:19.417Z,2484.00
2023-04-20T11:15:19.512Z,2474.00
2023-04-20T11:16:19.675Z,2476.00
2023-04-20T11:17:19.848Z,2473.00
2023-04-20T11:18:19.833Z,2464.00
2023-04-20T11:19:19.879Z,2450.00
2023-04-20T11:20:19.983Z,2448.00
2023-04-20T11:21:20.067Z,2433.00
2023-04-20T11:22:20.130Z,2410.00
2023-04-20T11:23:20.207Z,2418.00
2023-04-20T11:24:20.307Z,2417.00
2023-04-20T11:25:20.387Z,2421.00
2023-04-20T11:26:20.468Z,2404.00
2023-04-20T11:27:20.555Z,2392.00
2023-04-20T11:28:20.636Z,2402.00
2023-04-20T11:29:20.798Z,2403.00
2023-04-20T11:30:20.797Z,2381.00
2023-04-20T11:31:20.922Z,2382.00
2023-04-20T11:32:21.066Z,2382.00
2023-04-20T11:33:21.106Z,2377.00
2023-04-20T11:34:21.091Z,2374.00
2023-04-20T11:35:21.183Z,2374.00
2023-04-20T11:36:21.255Z,2385.00
2023-04-20T11:37:21.320Z,2389.00
2023-04-20T11:38:21.394Z,2408.00
2023-04-20T11:39:21.468Z,2390.00
2023-04-20T11:40:21.548Z,2402.00
2023-04-20T11:41:21.625Z,2402.00
2023-04-20T11:42:21.685Z,2457.00
2023-04-20T11:43:21.748Z,2394.00
2023-04-20T11:44:21.829Z,2405.00
2023-04-20T11:45:21.926Z,2413.00
2023-04-20T11:46:21.997Z,2436.00
2023-04-20T11:47:22.070Z,2431.00
2023-04-20T11:48:22.109Z,2440.00
2023-04-20T11:49:22.161Z,2449.00
2023-04-20T11:50:22.246Z,2472.00
2023-04-20T11:51:22.313Z,2469.00
2023-04-20T11:52:22.348Z,2496.00
2023-04-20T11:53:22.552Z,2480.00
2023-04-20T11:54:22.482Z,2514.00
2023-04-20T11:55:22.560Z,2514.00
2023-04-20T11:56:22.613Z,2524.00
2023-04-20T11:57:22.677Z,2531.00
2023-04-20T11:58:22.754Z,2550.00
2023-04-20T11:59:22.798Z,2548.00
2023-04-20T12:00:22.868Z,2554.00
2023-04-20T12:01:22.909Z,2606.00
2023-04-20T12:02:23.136Z,2705.00
2023-04-20T12:03:23.184Z,2813.00
2023-04-20T12:04:23.586Z,2915.00
2023-04-20T12:05:23.159Z,2973.00
2023-04-20T12:06:23.187Z,2983.00
2023-04-20T12:07:23.267Z,3000.00
2023-04-20T12:08:23.290Z,3036.00
2023-04-20T12:09:23.351Z,3022.00
2023-04-20T12:10:23.435Z,3053.00
2023-04-20T12:11:23.470Z,3054.00
2023-04-20T12:12:23.515Z,3074.00
2023-04-20T12:13:23.591Z,3054.00
2023-04-20T12:14:23.639Z,3051.00
2023-04-20T12:15:23.706Z,3046.00